createdAt,value
2019-03-30T00:03:05.079Z,24.30
2019-03-30T00:08:09.842Z,20.32
2019-03-30T00:13:14.154Z,18.62
2019-03-30T00:18:19.168Z,16.97
2019-03-30T00:23:24.774Z,15.65
2019-03-30T00:28:29.002Z,14.98
2019-03-30T00:33:35.487Z,16.60
2019-03-30T00:38:39.452Z,14.60
2019-03-30T00:43:43.840Z,15.23
2019-03-30T00:48:48.585Z,15.15
2019-03-30T00:53:53.656Z,13.62
2019-03-30T00:58:58.224Z,14.07
2019-03-30T01:04:03.461Z,13.95
2019-03-30T01:09:08.962Z,14.93
2019-03-30T01:14:13.511Z,14.07
2019-03-30T01:19:18.622Z,14.53
2019-03-30T01:24:23.622Z,15.65
2019-03-30T01:29:27.943Z,16.00
2019-03-30T01:34:36.432Z,15.28
2019-03-30T01:39:40.617Z,14.30
2019-03-30T01:44:45.162Z,15.03
2019-03-30T01:49:49.361Z,14.33
2019-03-30T01:54:53.834Z,15.38
2019-03-30T01:59:58.009Z,14.95
2019-03-30T02:05:02.220Z,13.38
2019-03-30T02:10:11.388Z,13.90
2019-03-30T02:15:16.054Z,14.53
2019-03-30T02:20:37.416Z,15.05
2019-03-30T02:25:41.944Z,15.55
2019-03-30T02:30:47.833Z,15.60
2019-03-30T02:35:58.758Z,15.10
2019-03-30T02:41:03.355Z,15.00
2019-03-30T02:46:07.594Z,14.65
2019-03-30T02:51:12.614Z,15.28
2019-03-30T02:56:17.199Z,11.78
2019-03-30T03:01:22.197Z,13.53
2019-03-30T03:06:26.146Z,14.28
2019-03-30T03:11:31.000Z,12.90
2019-03-30T03:16:35.823Z,13.18
2019-03-30T03:21:41.713Z,13.88
2019-03-30T03:26:46.505Z,13.22
2019-03-30T03:31:50.950Z,12.58
2019-03-30T03:36:55.436Z,12.95
2019-03-30T03:42:00.874Z,13.95
2019-03-30T03:47:05.417Z,14.45
2019-03-30T03:52:11.208Z,14.65
2019-03-30T03:57:20.232Z,13.48
2019-03-30T04:02:29.902Z,14.33
2019-03-30T04:07:39.650Z,13.25
2019-03-30T04:12:45.989Z,12.73
2019-03-30T04:17:50.133Z,13.53
2019-03-30T04:22:55.124Z,16.42
2019-03-30T04:28:01.119Z,15.18
2019-03-30T04:33:05.207Z,15.13
2019-03-30T04:38:09.447Z,16.85
2019-03-30T04:43:13.681Z,15.15
2019-03-30T04:48:20.141Z,15.30
2019-03-30T04:53:24.294Z,15.43
2019-03-30T04:58:28.880Z,15.60
2019-03-30T05:03:33.024Z,16.50
2019-03-30T05:08:37.377Z,16.52
2019-03-30T05:13:41.551Z,15.60
2019-03-30T05:18:47.257Z,17.57
2019-03-30T05:23:51.385Z,17.92
2019-03-30T05:28:55.540Z,17.98
2019-03-30T05:34:00.063Z,19.87
2019-03-30T05:39:05.064Z,18.77
2019-03-30T05:44:09.177Z,17.82
2019-03-30T05:49:13.581Z,18.32
2019-03-30T05:54:17.692Z,15.58
2019-03-30T05:59:22.575Z,15.78
2019-03-30T06:04:27.794Z,18.02
2019-03-30T06:09:32.230Z,19.25
2019-03-30T06:14:36.535Z,19.12
2019-03-30T06:19:41.981Z,18.55
2019-03-30T06:24:46.960Z,15.83
2019-03-30T06:30:15.503Z,17.73
2019-03-30T06:35:19.808Z,16.07
2019-03-30T06:40:24.316Z,18.55
2019-03-30T06:45:29.392Z,19.80
2019-03-30T06:50:33.617Z,20.90
2019-03-30T06:55:38.242Z,22.02
2019-03-30T07:00:42.585Z,18.98
2019-03-30T07:05:46.788Z,19.17
2019-03-30T07:10:50.902Z,21.48
2019-03-30T07:15:58.269Z,21.17
2019-03-30T07:21:02.937Z,20.97
2019-03-30T07:26:07.439Z,21.75
2019-03-30T07:31:11.559Z,20.20
2019-03-30T07:36:15.681Z,21.12
2019-03-30T07:41:20.600Z,23.25
2019-03-30T07:46:24.719Z,22.17
2019-03-30T07:51:33.263Z,24.15
2019-03-30T07:56:36.262Z,21.37
2019-03-30T08:01:41.326Z,18.90
2019-03-30T08:06:45.943Z,17.32
2019-03-30T08:11:50.150Z,22.00
2019-03-30T08:16:54.274Z,21.17
2019-03-30T08:21:58.642Z,20.15
2019-03-30T08:27:03.413Z,20.15
2019-03-30T08:32:09.418Z,20.55
2019-03-30T08:37:13.901Z,22.85
2019-03-30T08:42:19.008Z,22.87
2019-03-30T08:47:23.504Z,22.40
2019-03-30T08:52:27.596Z,23.10
2019-03-30T08:57:32.478Z,20.00
2019-03-30T09:02:36.627Z,20.17
2019-03-30T09:07:40.902Z,21.00
2019-03-30T09:12:45.913Z,21.37
2019-03-30T09:17:50.568Z,20.68
2019-03-30T09:22:54.747Z,19.50
2019-03-30T09:27:59.704Z,19.10
2019-03-30T09:33:03.948Z,19.90
2019-03-30T09:38:08.306Z,20.15
2019-03-30T09:43:13.313Z,18.25
2019-03-30T09:48:18.649Z,19.47
2019-03-30T09:53:22.790Z,19.85
2019-03-30T09:58:26.949Z,20.75
2019-03-30T10:03:31.089Z,21.35
2019-03-30T10:08:36.438Z,21.73
2019-03-30T10:13:41.257Z,22.75
2019-03-30T10:18:47.110Z,22.80
2019-03-30T10:23:51.253Z,22.27
2019-03-30T10:28:55.793Z,22.77
2019-03-30T10:34:00.950Z,23.18
2019-03-30T10:39:07.528Z,25.05
2019-03-30T10:44:13.400Z,23.52
2019-03-30T10:49:19.159Z,22.53
2019-03-30T10:54:23.374Z,21.30
2019-03-30T10:59:27.815Z,21.93
2019-03-30T11:04:31.993Z,19.35
2019-03-30T11:09:38.803Z,24.47
2019-03-30T11:19:48.442Z,23.12
2019-03-30T11:25:06.273Z,22.35
2019-03-30T11:29:58.740Z,24.40
2019-03-30T11:35:03.014Z,22.25
2019-03-30T11:40:07.394Z,22.02
2019-03-30T11:45:12.858Z,20.57
2019-03-30T11:50:16.994Z,21.65
2019-03-30T11:55:22.445Z,23.98
2019-03-30T12:00:27.116Z,24.97
2019-03-30T12:05:31.283Z,23.92
2019-03-30T12:10:36.916Z,22.48
2019-03-30T12:15:42.128Z,21.17
2019-03-30T12:20:58.772Z,24.23
2019-03-30T12:26:03.893Z,23.55
2019-03-30T12:31:08.097Z,20.12
2019-03-30T12:36:12.373Z,21.37
2019-03-30T12:41:16.542Z,20.90
2019-03-30T12:46:20.662Z,20.00
2019-03-30T12:51:24.978Z,20.62
2019-03-30T12:56:29.119Z,19.20
2019-03-30T13:01:33.274Z,22.80
2019-03-30T13:06:38.666Z,21.57
2019-03-30T13:11:44.008Z,19.00
2019-03-30T13:16:48.156Z,21.07
2019-03-30T13:21:53.109Z,23.42
2019-03-30T13:26:58.888Z,24.60
2019-03-30T13:32:03.033Z,23.60
2019-03-30T13:37:18.211Z,23.27
2019-03-30T13:42:24.048Z,24.70
2019-03-30T13:47:28.598Z,25.72
2019-03-30T13:52:33.644Z,24.50
2019-03-30T13:57:37.841Z,23.55
2019-03-30T14:02:44.072Z,23.80
2019-03-30T14:07:49.730Z,22.37
2019-03-30T14:12:53.870Z,23.38
2019-03-30T14:17:58.324Z,22.00
2019-03-30T14:23:02.462Z,22.70
2019-03-30T14:28:06.605Z,23.77
2019-03-30T14:33:10.716Z,23.00
2019-03-30T14:38:15.719Z,22.05
2019-03-30T14:43:19.860Z,22.02
2019-03-30T14:48:24.054Z,22.90
2019-03-30T14:53:28.456Z,22.37
2019-03-30T14:58:32.626Z,22.90
2019-03-30T15:03:36.957Z,21.62
2019-03-30T15:08:41.558Z,19.82
2019-03-30T15:13:45.691Z,20.17
2019-03-30T15:18:50.308Z,18.27
2019-03-30T15:23:55.990Z,17.25
2019-03-30T15:29:00.107Z,17.57
2019-03-30T15:39:08.991Z,18.05
2019-03-30T15:44:13.466Z,17.17
2019-03-30T15:49:17.761Z,17.52
2019-03-30T15:54:21.944Z,16.95
2019-03-30T15:59:26.149Z,16.23
2019-03-30T16:04:30.412Z,16.05
2019-03-30T16:09:34.949Z,15.25
2019-03-30T16:14:39.052Z,16.42
2019-03-30T16:19:44.398Z,17.57
2019-03-30T16:24:49.450Z,17.48
2019-03-30T16:29:58.478Z,16.55
2019-03-30T16:35:01.507Z,17.05
2019-03-30T16:40:06.205Z,16.73
2019-03-30T16:45:11.319Z,18.35
2019-03-30T16:50:16.324Z,18.27
2019-03-30T16:55:22.390Z,19.37
2019-03-30T17:00:32.681Z,18.55
2019-03-30T17:05:36.895Z,18.45
2019-03-30T17:10:41.120Z,19.20
2019-03-30T17:15:49.360Z,21.60
2019-03-30T17:20:58.449Z,22.17
2019-03-30T17:26:02.960Z,23.95
2019-03-30T17:31:07.724Z,25.10
2019-03-30T17:36:11.856Z,27.52
2019-03-30T17:41:17.535Z,28.12
2019-03-30T17:46:23.899Z,26.62
2019-03-30T17:51:29.359Z,29.48
2019-03-30T17:56:33.690Z,29.40
2019-03-30T18:01:38.180Z,27.20
2019-03-30T18:06:43.120Z,36.93
2019-03-30T18:11:50.784Z,36.95
2019-03-30T18:16:55.238Z,33.65
2019-03-30T18:21:59.442Z,30.60
2019-03-30T18:27:05.451Z,31.70
2019-03-30T18:32:11.607Z,30.70
2019-03-30T18:37:18.043Z,29.65
2019-03-30T18:42:22.457Z,29.90
2019-03-30T18:47:26.954Z,31.07
2019-03-30T18:52:32.028Z,32.13
2019-03-30T18:57:39.542Z,32.33
2019-03-30T19:02:43.735Z,34.40
2019-03-30T19:07:47.934Z,33.78
2019-03-30T19:12:52.181Z,35.10
2019-03-30T19:17:56.745Z,35.05
2019-03-30T19:23:00.939Z,35.00
2019-03-30T19:28:22.438Z,35.68
2019-03-30T19:33:28.714Z,39.38
2019-03-30T19:38:33.587Z,40.58
2019-03-30T19:43:37.731Z,45.80
2019-03-30T19:48:44.086Z,42.27
2019-03-30T19:58:54.519Z,37.45
2019-03-30T20:04:00.097Z,36.83
2019-03-30T20:09:08.401Z,40.20
2019-03-30T20:14:12.976Z,40.70
2019-03-30T20:19:17.159Z,49.48
2019-03-30T20:24:21.622Z,53.23
2019-03-30T20:29:26.578Z,56.58
2019-03-30T20:34:30.782Z,56.10
2019-03-30T20:39:38.480Z,56.55
2019-03-30T20:49:49.362Z,56.45
2019-03-30T20:56:18.246Z,54.85
2019-03-30T21:01:22.770Z,56.98
2019-03-30T21:06:27.689Z,54.90
2019-03-30T21:11:31.923Z,54.23
2019-03-30T21:16:36.852Z,54.85
2019-03-30T21:21:43.672Z,56.88
2019-03-30T21:26:47.809Z,57.90
2019-03-30T21:31:53.041Z,58.98
2019-03-30T21:36:57.925Z,55.55
2019-03-30T21:42:02.927Z,56.28
2019-03-30T21:47:08.077Z,56.73
2019-03-30T21:52:14.245Z,56.30
2019-03-30T21:57:19.554Z,56.30
2019-03-30T22:02:23.770Z,57.60
2019-03-30T22:07:29.166Z,55.43
2019-03-30T22:12:34.587Z,56.25
2019-03-30T22:17:38.766Z,57.93
2019-03-30T22:22:43.856Z,57.03
2019-03-30T22:27:48.780Z,59.53
2019-03-30T22:32:52.995Z,57.60
2019-03-30T22:37:57.738Z,56.28
2019-03-30T22:43:02.039Z,58.28
2019-03-30T22:48:06.189Z,57.73
2019-03-30T22:53:10.650Z,56.55
2019-03-30T22:58:14.842Z,58.85
2019-03-30T23:03:22.815Z,57.25
2019-03-30T23:08:27.878Z,53.33
2019-03-30T23:13:32.646Z,53.15
2019-03-30T23:18:39.001Z,51.35
2019-03-30T23:23:44.436Z,53.13
2019-03-30T23:28:49.372Z,52.67
2019-03-30T23:33:54.899Z,51.50
2019-03-30T23:39:00.213Z,53.30
2019-03-30T23:44:04.724Z,53.05
2019-03-30T23:49:09.094Z,55.92
2019-03-30T23:54:15.648Z,54.15
2019-03-30T23:59:20.996Z,56.73
